Impacts TAF Board INFO
FOR SITUATIONAL AWARENESS. NOT TO BE USED FOR FLIGHT PLANNING PURPOSES.
IDs:

KHDC - Hammond/Northshore R, LA, US

Issued at 1741 UTC 15 Aug 2018
Updated at 2044 UTC 15 Aug 2018
Potential Impact None Slight Moderate High
Time<<16/09Z 16/10Z 16/11Z 16/12Z 16/13Z 16/14Z 16/15Z 16/16Z 16/17Z 16/18Z 16/19Z 16/20Z 16/21Z>>
Type PRVL PRVL PRVL PRVL PRVL PRVL PRVL PRVL PRVL
VIS >6 >6 >6 >6 >6 >6 >6 >6 >6
CIG -- -- -- -- -- -- -- -- --
Cover FEW FEW FEW FEW FEW FEW SCT SCT SCT
FltCat VFR VFR VFR VFR VFR VFR VFR VFR VFR
WX -- -- -- -- -- -- -- -- --
WDir VRB VRB VRB VRB VRB VRB 280 280 280
WSpd 0 0 0 0 0 0 3 3 3
WGst -- -- -- -- -- -- -- -- --

Raw TAF
KHDC 151741Z 1518/1618 VRB04KT P6SM SCT040
  FM152100 VRB03KT P6SM VCSH FEW050 SCT130
  FM160200 00000KT P6SM FEW250
  FM161500 28003KT P6SM SCT250


METAR Board
Radar Display
Forecast Discussion

FOR SITUATIONAL AWARENESS. NOT TO BE USED FOR FLIGHT PLANNING PURPOSES.